createdAt,value
2019-04-14T00:01:50.117Z,4.09
2019-04-14T00:04:31.276Z,4.23
2019-04-14T00:07:01.554Z,4.26
2019-04-14T00:09:31.573Z,4.30
2019-04-14T00:12:02.093Z,4.32
2019-04-14T00:14:31.497Z,4.31
2019-04-14T00:17:00.655Z,4.28
2019-04-14T00:19:30.557Z,4.25
2019-04-14T00:22:01.459Z,4.18
2019-04-14T00:24:31.317Z,4.15
2019-04-14T00:27:00.082Z,4.20
2019-04-14T00:29:30.600Z,4.28
2019-04-14T00:31:59.454Z,4.22
2019-04-14T00:34:35.337Z,4.19
2019-04-14T00:37:27.265Z,4.18
2019-04-14T00:39:59.819Z,4.12
2019-04-14T00:42:47.547Z,4.09
2019-04-14T00:45:34.937Z,4.06
2019-04-14T00:48:09.786Z,4.14
2019-04-14T00:50:36.516Z,4.08
2019-04-14T00:53:05.547Z,4.01
2019-04-14T00:55:35.664Z,3.97
2019-04-14T00:58:04.520Z,3.82
2019-04-14T01:00:34.580Z,3.82
2019-04-14T01:03:03.231Z,3.84
2019-04-14T01:05:34.392Z,3.91
2019-04-14T01:08:03.110Z,3.97
2019-04-14T01:10:32.907Z,4.01
2019-04-14T01:13:02.694Z,4.01
2019-04-14T01:15:44.846Z,3.99
2019-04-14T01:18:01.842Z,3.94
2019-04-14T01:20:31.735Z,3.85
2019-04-14T01:23:00.535Z,3.70
2019-04-14T01:25:30.224Z,3.65
2019-04-14T01:28:00.225Z,3.69
2019-04-14T01:30:29.114Z,3.71
2019-04-14T01:32:58.858Z,3.77
2019-04-14T01:35:29.189Z,3.71
2019-04-14T01:37:57.957Z,3.71
2019-04-14T01:40:27.081Z,3.79
2019-04-14T01:42:55.909Z,3.80
2019-04-14T01:45:25.324Z,3.84
2019-04-14T01:47:55.223Z,3.92
2019-04-14T01:50:34.406Z,3.91
2019-04-14T01:53:25.339Z,3.92
2019-04-14T01:56:01.284Z,3.91
2019-04-14T01:58:36.031Z,3.86
2019-04-14T02:01:14.944Z,3.89
2019-04-14T02:03:43.783Z,3.89
2019-04-14T02:06:13.534Z,3.96
2019-04-14T02:08:43.558Z,4.05
2019-04-14T02:11:13.719Z,4.15
2019-04-14T02:13:42.459Z,4.12
2019-04-14T02:16:23.003Z,4.16
2019-04-14T02:18:42.633Z,4.15
2019-04-14T02:21:12.833Z,4.15
2019-04-14T02:23:41.584Z,4.20
2019-04-14T02:26:11.244Z,4.19
2019-04-14T02:28:40.038Z,4.18
2019-04-14T02:31:24.822Z,4.20
2019-04-14T02:34:02.276Z,4.30
2019-04-14T02:36:41.861Z,4.37
2019-04-14T02:39:08.699Z,4.40
2019-04-14T02:41:35.873Z,4.43
2019-04-14T02:44:24.073Z,4.52
2019-04-14T02:46:45.869Z,4.57
2019-04-14T02:49:04.464Z,4.53
2019-04-14T02:51:33.729Z,4.44
2019-04-14T02:56:36.644Z,4.48
2019-04-14T02:59:05.592Z,4.43
2019-04-14T03:01:47.675Z,4.43
2019-04-14T03:04:08.954Z,4.42
2019-04-14T03:06:46.893Z,4.32
2019-04-14T03:11:48.870Z,4.15
2019-04-14T03:14:19.718Z,4.17
2019-04-14T03:17:14.264Z,4.03
2019-04-14T03:22:44.293Z,3.78
2019-04-14T03:25:13.141Z,3.67
2019-04-14T03:33:18.505Z,3.44
2019-04-14T03:38:11.351Z,3.35
2019-04-14T03:40:34.069Z,3.39
2019-04-14T03:43:13.084Z,3.45
2019-04-14T03:48:34.402Z,3.59
2019-04-14T03:50:28.884Z,3.52
2019-04-14T03:53:13.939Z,3.51
2019-04-14T03:55:24.019Z,3.48
2019-04-14T03:57:39.103Z,3.44
2019-04-14T04:00:07.856Z,3.40
2019-04-14T04:02:36.532Z,3.42
2019-04-14T04:05:06.322Z,3.48
2019-04-14T04:07:36.417Z,3.44
2019-04-14T04:10:11.453Z,3.59
2019-04-14T04:12:40.099Z,3.62
2019-04-14T04:15:09.003Z,3.74
2019-04-14T04:17:49.444Z,3.79
2019-04-14T04:20:26.744Z,3.75
2019-04-14T04:23:11.650Z,3.76
2019-04-14T04:26:02.437Z,3.85
2019-04-14T04:28:49.665Z,3.94
2019-04-14T04:31:41.720Z,3.96
2019-04-14T04:34:29.437Z,3.88
2019-04-14T04:37:13.161Z,3.94
2019-04-14T04:39:43.610Z,3.92
2019-04-14T04:42:13.278Z,3.78
2019-04-14T04:44:42.186Z,3.83
2019-04-14T04:47:12.340Z,3.81
2019-04-14T04:49:42.501Z,3.81
2019-04-14T04:52:12.996Z,3.79
2019-04-14T04:54:42.760Z,3.74
2019-04-14T04:57:11.478Z,3.81
2019-04-14T04:59:41.199Z,3.93
2019-04-14T05:02:11.276Z,4.01
2019-04-14T05:04:40.030Z,4.02
2019-04-14T05:07:09.805Z,3.96
2019-04-14T05:09:57.759Z,4.00
2019-04-14T05:12:32.639Z,4.12
2019-04-14T05:15:13.956Z,4.16
2019-04-14T05:17:43.137Z,4.23
2019-04-14T05:20:12.011Z,4.27
2019-04-14T05:22:41.775Z,4.28
2019-04-14T05:25:12.457Z,4.29
2019-04-14T05:27:41.268Z,4.36
2019-04-14T05:30:11.062Z,4.49
2019-04-14T05:32:41.313Z,4.55
2019-04-14T05:35:10.098Z,4.46
2019-04-14T05:37:39.954Z,4.45
2019-04-14T05:40:09.971Z,4.78
2019-04-14T05:42:38.990Z,4.81
2019-04-14T05:45:08.665Z,4.88
2019-04-14T05:47:37.713Z,4.95
2019-04-14T05:50:07.330Z,5.03
2019-04-14T05:52:36.168Z,5.31
2019-04-14T05:55:06.539Z,5.41
2019-04-14T05:57:35.708Z,5.58
2019-04-14T06:00:06.039Z,5.57
2019-04-14T06:02:35.618Z,5.74
2019-04-14T06:05:06.486Z,5.90
2019-04-14T06:07:35.366Z,6.10
2019-04-14T06:10:04.813Z,6.16
2019-04-14T06:12:33.488Z,6.43
2019-04-14T06:15:02.196Z,6.81
2019-04-14T06:17:30.834Z,7.03
2019-04-14T06:19:59.482Z,7.14
2019-04-14T06:22:28.124Z,7.25
2019-04-14T06:24:56.772Z,7.43
2019-04-14T06:27:25.427Z,7.54
2019-04-14T06:29:57.916Z,7.70
2019-04-14T06:32:45.647Z,7.93
2019-04-14T06:35:42.995Z,8.26
2019-04-14T06:38:21.267Z,8.52
2019-04-14T06:41:02.115Z,8.57
2019-04-14T06:43:30.767Z,8.65
2019-04-14T06:45:59.551Z,8.89
2019-04-14T06:48:28.219Z,9.16
2019-04-14T06:50:56.900Z,9.28
2019-04-14T06:53:25.538Z,9.16
2019-04-14T06:55:55.116Z,9.16
2019-04-14T06:58:23.984Z,9.20
2019-04-14T07:00:52.632Z,9.38
2019-04-14T07:03:21.293Z,9.64
2019-04-14T07:05:50.250Z,9.75
2019-04-14T07:08:18.886Z,9.82
2019-04-14T07:10:47.678Z,10.01
2019-04-14T07:13:19.378Z,10.05
2019-04-14T07:15:46.690Z,10.08
2019-04-14T07:18:16.265Z,10.01
2019-04-14T07:20:44.908Z,9.82
2019-04-14T07:23:13.549Z,9.80
2019-04-14T07:25:42.197Z,9.36
2019-04-14T07:28:11.932Z,9.23
2019-04-14T07:31:02.454Z,9.11
2019-04-14T07:33:40.819Z,9.18
2019-04-14T07:36:19.559Z,9.21
2019-04-14T07:38:53.391Z,9.23
2019-04-14T07:41:43.873Z,9.07
2019-04-14T07:44:29.743Z,9.13
2019-04-14T07:47:13.976Z,9.28
2019-04-14T07:50:14.029Z,9.21
2019-04-14T07:52:50.016Z,9.22
2019-04-14T07:55:36.295Z,8.99
2019-04-14T07:58:15.051Z,8.94
2019-04-14T08:01:02.759Z,9.02
2019-04-14T08:03:38.219Z,9.04
2019-04-14T08:06:06.835Z,9.25
2019-04-14T08:08:35.483Z,9.43
2019-04-14T08:11:04.421Z,9.61
2019-04-14T08:13:33.141Z,9.85
2019-04-14T08:16:01.778Z,10.13
2019-04-14T08:18:31.702Z,10.33
2019-04-14T08:21:00.342Z,10.30
2019-04-14T08:23:29.325Z,10.53
2019-04-14T08:25:57.998Z,10.88
2019-04-14T08:28:26.669Z,11.03
2019-04-14T08:30:55.331Z,11.11
2019-04-14T08:33:24.079Z,11.30
2019-04-14T08:35:52.732Z,10.91
2019-04-14T08:38:21.383Z,10.77
2019-04-14T08:40:50.052Z,10.48
2019-04-14T08:43:33.577Z,10.98
2019-04-14T08:46:24.353Z,11.32
2019-04-14T08:49:08.791Z,11.49
2019-04-14T08:51:45.215Z,11.63
2019-04-14T08:54:32.931Z,11.94
2019-04-14T08:57:16.579Z,12.24
2019-04-14T09:00:03.199Z,12.41
2019-04-14T09:02:51.199Z,12.20
2019-04-14T09:05:54.255Z,11.78
2019-04-14T09:08:29.971Z,12.17
2019-04-14T09:11:00.667Z,12.13
2019-04-14T09:13:29.312Z,12.54
2019-04-14T09:15:57.996Z,12.92
2019-04-14T09:18:26.628Z,13.31
2019-04-14T09:20:55.380Z,13.25
2019-04-14T09:23:24.128Z,13.29
2019-04-14T09:25:52.842Z,13.58
2019-04-14T09:28:22.464Z,13.85
2019-04-14T09:30:51.384Z,14.28
2019-04-14T09:33:20.296Z,15.03
2019-04-14T09:35:49.675Z,15.34
2019-04-14T09:38:18.352Z,15.60
2019-04-14T09:40:47.064Z,15.56
2019-04-14T09:43:15.734Z,15.52
2019-04-14T09:45:44.359Z,15.96
2019-04-14T09:48:13.049Z,16.76
2019-04-14T09:50:41.784Z,16.78
2019-04-14T09:53:10.435Z,17.17
2019-04-14T09:55:39.366Z,17.11
2019-04-14T09:58:08.023Z,17.03
2019-04-14T10:00:38.923Z,16.88
2019-04-14T10:03:08.100Z,17.19
2019-04-14T10:05:36.879Z,16.74
2019-04-14T10:08:05.607Z,16.12
2019-04-14T10:10:34.509Z,16.95
2019-04-14T10:13:03.424Z,17.64
2019-04-14T10:15:32.142Z,18.41
2019-04-14T10:18:00.786Z,18.05
2019-04-14T10:20:29.531Z,17.76
2019-04-14T10:22:58.404Z,19.01
2019-04-14T10:25:27.070Z,19.57
2019-04-14T10:27:55.734Z,19.54
2019-04-14T10:30:24.380Z,19.78
2019-04-14T10:32:53.035Z,20.23
2019-04-14T10:35:21.687Z,20.47
2019-04-14T10:37:50.338Z,20.94
2019-04-14T10:40:18.997Z,21.41
2019-04-14T10:42:47.671Z,21.36
2019-04-14T10:45:18.343Z,21.37
2019-04-14T10:47:46.727Z,21.42
2019-04-14T10:50:15.444Z,20.98
2019-04-14T10:52:44.085Z,21.41
2019-04-14T10:55:12.753Z,21.98
2019-04-14T10:57:41.392Z,21.45
2019-04-14T11:00:13.635Z,22.45
2019-04-14T11:02:42.405Z,23.71
2019-04-14T11:05:11.052Z,25.49
2019-04-14T11:07:39.730Z,26.16
2019-04-14T11:10:08.516Z,25.73
2019-04-14T11:12:37.232Z,25.21
2019-04-14T11:15:07.517Z,24.19
2019-04-14T11:17:36.174Z,23.86
2019-04-14T11:20:05.388Z,24.53
2019-04-14T11:22:34.146Z,26.05
2019-04-14T11:25:02.779Z,26.68
2019-04-14T11:27:31.488Z,27.43
2019-04-14T11:30:00.182Z,28.22
2019-04-14T11:32:43.568Z,28.85
2019-04-14T11:35:30.909Z,30.67
2019-04-14T11:38:13.851Z,32.05
2019-04-14T11:40:45.970Z,31.83
2019-04-14T11:43:14.953Z,31.56
2019-04-14T11:45:43.624Z,33.52
2019-04-14T11:48:12.296Z,33.54
2019-04-14T11:50:40.955Z,34.80
2019-04-14T11:53:09.754Z,35.25
2019-04-14T11:55:38.531Z,32.17
2019-04-14T11:58:07.167Z,30.43
2019-04-14T12:00:57.545Z,28.20
2019-04-14T12:03:45.254Z,28.80
2019-04-14T12:06:29.101Z,28.48
2019-04-14T12:09:32.317Z,30.64
2019-04-14T12:12:01.314Z,34.13
2019-04-14T12:14:29.949Z,33.17
2019-04-14T12:16:58.583Z,30.70
2019-04-14T12:19:27.234Z,31.91
2019-04-14T12:22:07.720Z,30.80
2019-04-14T12:24:27.324Z,29.20
2019-04-14T12:26:56.026Z,28.21
2019-04-14T12:29:26.027Z,26.80
2019-04-14T12:31:55.260Z,27.82
2019-04-14T12:34:23.961Z,30.41
2019-04-14T12:36:52.608Z,31.03
2019-04-14T12:39:22.461Z,30.26
2019-04-14T12:42:13.038Z,28.89
2019-04-14T12:44:59.643Z,29.02
2019-04-14T12:47:47.563Z,28.37
2019-04-14T12:50:21.092Z,28.59
2019-04-14T12:52:49.939Z,30.68
2019-04-14T12:55:18.571Z,33.73
2019-04-14T12:57:48.698Z,32.56
2019-04-14T13:00:25.732Z,32.25
2019-04-14T13:02:54.391Z,29.00
2019-04-14T13:05:23.016Z,26.47
2019-04-14T13:07:51.683Z,24.87
2019-04-14T13:10:20.440Z,23.22
2019-04-14T13:12:49.217Z,24.47
2019-04-14T13:15:17.834Z,25.76
2019-04-14T13:17:46.631Z,27.66
2019-04-14T13:20:15.608Z,29.86
2019-04-14T13:22:44.247Z,31.44
2019-04-14T13:25:12.918Z,30.24
2019-04-14T13:27:41.559Z,28.32
2019-04-14T13:30:11.882Z,26.42
2019-04-14T13:32:40.530Z,24.42
2019-04-14T13:35:09.270Z,23.67
2019-04-14T13:37:38.264Z,23.01
2019-04-14T13:40:07.064Z,22.57
2019-04-14T13:42:35.765Z,22.66
2019-04-14T13:45:05.009Z,22.40
2019-04-14T13:47:33.668Z,22.74
2019-04-14T13:50:03.626Z,23.37
2019-04-14T13:52:32.355Z,24.45
2019-04-14T13:55:01.116Z,25.27
2019-04-14T13:57:29.831Z,26.14
2019-04-14T13:59:59.097Z,25.33
2019-04-14T14:02:27.751Z,23.62
2019-04-14T14:04:56.387Z,23.38
2019-04-14T14:07:25.025Z,22.83
2019-04-14T14:09:56.940Z,21.99
2019-04-14T14:12:29.383Z,21.08
2019-04-14T14:15:12.535Z,21.45
2019-04-14T14:17:49.207Z,21.86
2019-04-14T14:20:52.103Z,21.66
2019-04-14T14:23:28.563Z,21.70
2019-04-14T14:26:01.175Z,21.44
2019-04-14T14:28:29.810Z,21.30
2019-04-14T14:30:58.451Z,20.75
2019-04-14T14:33:27.098Z,20.73
2019-04-14T14:35:56.071Z,20.50
2019-04-14T14:38:24.708Z,20.32
2019-04-14T14:40:54.378Z,19.33
2019-04-14T14:43:23.056Z,19.65
2019-04-14T14:46:04.181Z,19.97
2019-04-14T14:48:40.248Z,19.78
2019-04-14T14:51:25.918Z,19.27
2019-04-14T14:53:54.931Z,19.17
2019-04-14T14:56:23.564Z,18.94
2019-04-14T14:58:52.208Z,18.65
2019-04-14T15:01:20.855Z,18.34
2019-04-14T15:03:49.950Z,18.10
2019-04-14T15:06:18.591Z,17.58
2019-04-14T15:08:47.240Z,17.00
2019-04-14T15:11:15.885Z,17.03
2019-04-14T15:13:44.783Z,17.49
2019-04-14T15:16:13.519Z,17.97
2019-04-14T15:18:42.350Z,17.71
2019-04-14T15:21:10.991Z,17.28
2019-04-14T15:23:39.635Z,17.07
2019-04-14T15:26:09.263Z,16.93
2019-04-14T15:28:37.903Z,16.72
2019-04-14T15:31:06.573Z,16.79
2019-04-14T15:33:35.213Z,16.83
2019-04-14T15:36:03.927Z,15.93
2019-04-14T15:38:32.623Z,15.19
2019-04-14T15:41:01.267Z,14.92
2019-04-14T15:43:30.008Z,15.09
2019-04-14T15:45:58.654Z,15.26
2019-04-14T15:48:27.552Z,15.56
2019-04-14T15:50:56.196Z,15.11
2019-04-14T15:53:36.960Z,15.00
2019-04-14T15:55:55.342Z,15.21
2019-04-14T15:58:48.870Z,14.70
2019-04-14T16:01:35.156Z,14.66
2019-04-14T16:04:20.052Z,14.36
2019-04-14T16:07:14.057Z,14.52
2019-04-14T16:10:08.164Z,14.55
2019-04-14T16:12:55.870Z,14.46
2019-04-14T16:15:34.281Z,14.30
2019-04-14T16:18:21.413Z,14.47
2019-04-14T16:20:50.056Z,14.59
2019-04-14T16:23:18.854Z,14.36
2019-04-14T16:26:06.771Z,13.98
2019-04-14T16:28:57.823Z,13.82
2019-04-14T16:31:54.651Z,13.82
2019-04-14T16:34:26.791Z,13.57
2019-04-14T16:36:55.731Z,13.59
2019-04-14T16:39:24.390Z,13.40
2019-04-14T16:41:53.083Z,13.08
2019-04-14T16:44:22.070Z,12.99
2019-04-14T16:46:51.110Z,12.40
2019-04-14T16:49:19.926Z,12.26
2019-04-14T16:51:55.590Z,12.64
2019-04-14T16:54:30.910Z,12.78
2019-04-14T16:57:22.873Z,13.03
2019-04-14T16:59:51.921Z,12.90
2019-04-14T17:02:20.556Z,12.75
2019-04-14T17:04:49.214Z,13.85
2019-04-14T17:07:17.847Z,14.38
2019-04-14T17:09:46.510Z,14.06
2019-04-14T17:12:16.776Z,13.63
2019-04-14T17:14:52.536Z,13.12
2019-04-14T17:17:33.962Z,12.92
2019-04-14T17:20:09.486Z,12.99
2019-04-14T17:22:47.128Z,12.89
2019-04-14T17:25:22.869Z,12.70
2019-04-14T17:28:10.067Z,12.57
2019-04-14T17:30:43.277Z,12.44
2019-04-14T17:33:25.497Z,12.26
2019-04-14T17:36:01.435Z,12.12
2019-04-14T17:38:36.167Z,11.94
2019-04-14T17:41:12.091Z,11.67
2019-04-14T17:43:54.677Z,11.52
2019-04-14T17:46:45.423Z,11.49
2019-04-14T17:49:23.442Z,11.32
2019-04-14T17:52:10.029Z,10.83
2019-04-14T17:55:04.041Z,10.55
2019-04-14T17:57:51.900Z,10.55
2019-04-14T18:00:38.312Z,10.77
2019-04-14T18:03:17.774Z,10.85
2019-04-14T18:05:59.118Z,10.86
2019-04-14T18:08:50.050Z,10.82
2019-04-14T18:11:36.537Z,10.78
2019-04-14T18:14:13.176Z,10.69
2019-04-14T18:16:59.642Z,10.59
2019-04-14T18:19:50.164Z,10.64
2019-04-14T18:22:18.819Z,10.54
2019-04-14T18:24:47.667Z,10.24
2019-04-14T18:27:16.339Z,10.20
2019-04-14T18:29:59.531Z,10.33
2019-04-14T18:32:59.490Z,10.29
2019-04-14T18:35:46.019Z,10.30
2019-04-14T18:38:49.149Z,10.35
2019-04-14T18:41:35.511Z,10.35
2019-04-14T18:44:19.227Z,10.32
2019-04-14T18:47:07.023Z,10.32
2019-04-14T18:49:53.624Z,10.31
2019-04-14T18:52:43.967Z,10.25
2019-04-14T18:55:26.765Z,10.30
2019-04-14T18:58:13.708Z,10.31
2019-04-14T19:00:50.750Z,10.33
2019-04-14T19:03:20.476Z,10.34
2019-04-14T19:05:49.385Z,10.41
2019-04-14T19:08:18.409Z,10.44
2019-04-14T19:10:56.413Z,10.33
2019-04-14T19:13:28.299Z,10.34
2019-04-14T19:16:07.564Z,10.33
2019-04-14T19:18:45.140Z,10.37
2019-04-14T19:21:16.292Z,10.29
2019-04-14T19:23:46.722Z,10.33
2019-04-14T19:26:16.095Z,10.40
2019-04-14T19:28:45.042Z,10.48
2019-04-14T19:31:14.938Z,10.51
2019-04-14T19:33:43.691Z,10.53
2019-04-14T19:36:12.687Z,10.50
2019-04-14T19:38:41.485Z,10.42
2019-04-14T19:41:10.295Z,10.40
2019-04-14T19:43:39.096Z,10.45
2019-04-14T19:46:07.940Z,10.43
2019-04-14T19:48:36.779Z,10.43
2019-04-14T19:51:05.488Z,10.45
2019-04-14T19:53:34.160Z,10.39
2019-04-14T19:56:02.911Z,10.36
2019-04-14T19:58:31.929Z,10.40
2019-04-14T20:01:00.572Z,10.42
2019-04-14T20:03:30.622Z,10.44
2019-04-14T20:05:59.294Z,10.43
2019-04-14T20:08:29.036Z,10.50
2019-04-14T20:10:58.174Z,10.61
2019-04-14T20:13:28.558Z,10.64
2019-04-14T20:16:16.528Z,10.59
2019-04-14T20:19:10.198Z,10.48
2019-04-14T20:21:53.251Z,10.49
2019-04-14T20:24:41.041Z,10.43
2019-04-14T20:27:16.615Z,10.42
2019-04-14T20:29:48.994Z,10.35
2019-04-14T20:32:26.708Z,10.29
2019-04-14T20:34:55.415Z,10.30
2019-04-14T20:37:24.135Z,10.22
2019-04-14T20:39:53.411Z,10.13
2019-04-14T20:42:22.255Z,10.10
2019-04-14T20:44:51.024Z,10.17
2019-04-14T20:47:19.760Z,10.16
2019-04-14T20:49:48.659Z,10.17
2019-04-14T20:52:17.379Z,10.16
2019-04-14T20:54:46.342Z,10.20
2019-04-14T20:57:15.253Z,10.20
2019-04-14T20:59:43.892Z,10.16
2019-04-14T21:02:48.265Z,10.14
2019-04-14T21:05:34.427Z,10.25
2019-04-14T21:08:22.337Z,10.30
2019-04-14T21:10:55.078Z,10.44
2019-04-14T21:13:45.131Z,10.41
2019-04-14T21:16:31.954Z,10.39
2019-04-14T21:19:10.534Z,10.19
2019-04-14T21:21:47.919Z,10.12
2019-04-14T21:24:22.854Z,10.14
2019-04-14T21:26:56.316Z,10.07
2019-04-14T21:29:42.626Z,10.07
2019-04-14T21:32:20.926Z,10.08
2019-04-14T21:35:12.808Z,10.08
2019-04-14T21:38:03.325Z,10.10
2019-04-14T21:40:45.721Z,10.07
2019-04-14T21:43:14.440Z,9.98
2019-04-14T21:45:43.152Z,9.93
2019-04-14T21:48:11.811Z,9.79
2019-04-14T21:50:40.463Z,9.85
2019-04-14T21:53:09.097Z,9.95
2019-04-14T21:55:37.763Z,9.91
2019-04-14T21:58:18.215Z,9.84
2019-04-14T22:01:19.773Z,9.81
2019-04-14T22:04:08.372Z,9.82
2019-04-14T22:06:39.900Z,9.83
2019-04-14T22:09:14.715Z,9.77
2019-04-14T22:11:43.541Z,9.84
2019-04-14T22:14:12.605Z,9.84
2019-04-14T22:16:41.319Z,9.76
2019-04-14T22:19:10.266Z,9.83
2019-04-14T22:21:38.919Z,9.85
2019-04-14T22:24:07.562Z,9.75
2019-04-14T22:26:36.230Z,9.82
2019-04-14T22:29:04.878Z,9.81
2019-04-14T22:31:33.604Z,9.87
2019-04-14T22:34:03.350Z,9.84
2019-04-14T22:36:32.002Z,9.75
2019-04-14T22:39:01.062Z,9.81
2019-04-14T22:41:31.440Z,9.87
2019-04-14T22:44:00.096Z,9.99
2019-04-14T22:46:28.754Z,9.95
2019-04-14T22:48:57.491Z,9.99
2019-04-14T22:51:26.133Z,9.99
2019-04-14T22:53:54.772Z,9.89
2019-04-14T22:56:23.417Z,9.87
2019-04-14T22:58:52.047Z,9.85
2019-04-14T23:01:29.395Z,9.77
2019-04-14T23:04:20.127Z,9.84
2019-04-14T23:07:13.739Z,9.86
2019-04-14T23:09:49.329Z,9.89
2019-04-14T23:12:39.878Z,9.84
2019-04-14T23:15:24.708Z,9.77
2019-04-14T23:18:07.445Z,9.67
2019-04-14T23:20:47.890Z,9.47
2019-04-14T23:23:42.407Z,9.42
2019-04-14T23:26:11.062Z,9.46
2019-04-14T23:28:39.859Z,9.33
2019-04-14T23:31:08.600Z,9.31
2019-04-14T23:33:37.234Z,9.28
2019-04-14T23:36:05.880Z,9.18
2019-04-14T23:38:34.538Z,9.13
2019-04-14T23:41:03.184Z,9.00
2019-04-14T23:43:31.828Z,8.81
2019-04-14T23:46:00.620Z,8.60
2019-04-14T23:48:29.255Z,8.49
2019-04-14T23:50:57.907Z,8.33
2019-04-14T23:53:26.551Z,8.17
2019-04-14T23:55:55.264Z,7.97
2019-04-14T23:58:24.336Z,7.82
